Terminal Aerodrome Forecast
Issued by NWS

Home | Current Version | Previous Version | Text Only | Print | Product List | Glossary On
Versions: 1 2 3 4 5 6 7 8 9 10 11 12 13 14
000
FTUS45 KRIW 231731
TAFCPR
TAF
KCPR 231731Z 2318/2418 34012KT P6SM SCT050
     FM240200 27008KT P6SM SCT060
     FM240800 22010KT P6SM SCT070
     FM241400 24014G25KT P6SM FEW080=

USA.gov is the U.S. government's official web portal to all federal, state and local government web resources and services.